sim
Sign-in with your pilot id or email,
or register
Callsign
Passwort

Schedule Details

Flight Number: OEO2654
Departure: Nuremberg Airport (EDDN) at 06:50
Arrival: Fuerteventura Airport (GCFV) at 11:40

Weather Information
Getting current METAR information for EDDN 160350Z 32001KT CAVOK M03/M04 Q1030
Getting current METAR information for GCFV 160400Z AUTO 28006KT 9999 NCD 13/11 Q1017

Schedule Frequency

Route Map